Time;durP1;ratioP1;P1;durP2;ratioP2;P2;SDS_P1;SDS_P2;PMS_P1;PMS_P2;Temp;Humidity;BMP_temperature;BMP_pressure;BME280_temperature;BME280_humidity;BME280_pressure;Samples;Min_cycle;Max_cycle;Signal;HPM_P1;HPM_P2
2022/03/09 00:00:26;;;;;;;9.00;6.37;;;;;;;;;;5031245;28;20042;-57
2022/03/09 00:03:15;;;;;;;7.03;5.10;;;;;;;;;;5049257;28;20132;-56
2022/03/09 00:06:07;;;;;;;8.87;5.60;;;;;;;;;;5087772;28;20043;-57
2022/03/09 00:11:50;;;;;;;10.67;5.87;;;;;;;;;;5046807;28;20040;-55
2022/03/09 00:14:55;;;;;;;13.17;5.27;;;;;;;;;;5047861;28;20032;-56
2022/03/09 00:17:51;;;;;;;8.07;6.07;;;;;;;;;;5047653;28;20033;-52
2022/03/09 00:30:01;;;;;;;;;;;;;;;;;;;;;
2022/03/09 00:32:57;;;;;;;;;;;;;;;;;;;;;
2022/03/09 00:41:32;;;;;;;8.33;4.60;;;;;;;;;;5066779;28;20044;-57
2022/03/09 00:50:11;;;;;;;6.17;4.67;;;;;;;;;;5057917;28;20036;-56
2022/03/09 00:55:58;;;;;;;7.57;5.20;;;;;;;;;;4991523;28;20034;-55
2022/03/09 00:58:50;;;;;;;5.57;4.57;;;;;;;;;;5006352;28;20026;-54
2022/03/09 01:01:25;;;;;;;7.40;4.73;;;;;;;;;;5010794;28;20053;-55
2022/03/09 01:04:16;;;;;;;10.47;5.07;;;;;;;;;;5045963;28;20038;-55
2022/03/09 01:13:22;;;;;;;5.07;4.00;;;;;;;;;;5022925;28;20105;-56
2022/03/09 01:16:26;;;;;;;;;;;;;;;;;;;;;
2022/03/09 01:19:02;;;;;;;6.70;5.50;;;;;;;;;;5047284;28;20052;-56
2022/03/09 01:21:43;;;;;;;4.57;4.00;;;;;;;;;;5107975;28;20196;-56
2022/03/09 01:27:37;;;;;;;4.63;4.13;;;;;;;;;;5078683;28;20039;-54
2022/03/09 01:30:10;;;;;;;6.67;4.63;;;;;;;;;;5108814;28;20034;-56
2022/03/09 01:32:52;;;;;;;;;;;;;;;;;;;;;
2022/03/09 01:35:28;;;;;;;6.37;4.57;;;;;;;;;;5108451;28;20051;-56
2022/03/09 01:38:17;;;;;;;7.70;5.47;;;;;;;;;;5087864;28;20441;-52
2022/03/09 01:44:11;;;;;;;8.23;4.87;;;;;;;;;;5107480;28;20044;-54
2022/03/09 01:46:44;;;;;;;5.20;4.33;;;;;;;;;;5107498;28;20103;-55
2022/03/09 01:49:44;;;;;;;;;;;;;;;;;;;;;
2022/03/09 01:52:39;;;;;;;6.18;5.40;;;;;;;;;;5104294;28;20068;-56
2022/03/09 01:58:09;;;;;;;5.63;5.03;;;;;;;;;;5104260;28;20039;-52
2022/03/09 02:06:52;;;;;;;5.93;4.00;;;;;;;;;;5087413;28;20040;-55
2022/03/09 02:12:49;;;;;;;5.23;3.63;;;;;;;;;;5081287;28;20039;-57
2022/03/09 02:18:33;;;;;;;6.60;4.80;;;;;;;;;;5081279;28;20068;-57
2022/03/09 02:21:03;;;;;;;7.47;4.47;;;;;;;;;;5086747;28;20071;-57
2022/03/09 02:23:38;;;;;;;8.60;5.13;;;;;;;;;;5087057;28;20036;-57
2022/03/09 02:26:21;;;;;;;7.30;4.27;;;;;;;;;;5087445;28;20689;-57
2022/03/09 02:32:06;;;;;;;6.53;4.67;;;;;;;;;;5057838;28;20047;-57
2022/03/09 02:34:35;;;;;;;4.97;3.53;;;;;;;;;;5086083;28;20071;-57
2022/03/09 02:37:13;;;;;;;6.93;4.43;;;;;;;;;;5081989;28;20052;-57
2022/03/09 02:39:52;;;;;;;5.33;4.20;;;;;;;;;;5086020;28;20024;-57
2022/03/09 02:42:34;;;;;;;5.63;3.97;;;;;;;;;;5085204;28;20049;-57
2022/03/09 02:45:08;;;;;;;7.57;4.37;;;;;;;;;;5086583;28;20024;-57
2022/03/09 02:48:04;;;;;;;;;;;;;;;;;;;;;
2022/03/09 02:53:51;;;;;;;5.72;4.15;;;;;;;;;;5063418;28;20055;-55
2022/03/09 02:56:35;;;;;;;5.60;4.47;;;;;;;;;;5083724;28;20029;-56
2022/03/09 02:59:01;;;;;;;7.00;4.53;;;;;;;;;;5084631;28;20025;-57
2022/03/09 03:01:35;;;;;;;4.73;4.23;;;;;;;;;;5083516;28;20048;-57
2022/03/09 03:04:35;;;;;;;;;;;;;;;;;;;;;
2022/03/09 03:07:03;;;;;;;4.63;3.60;;;;;;;;;;5079609;28;20176;-58
2022/03/09 03:09:49;;;;;;;4.97;4.37;;;;;;;;;;5081577;28;20041;-56
2022/03/09 03:15:37;;;;;;;4.97;4.17;;;;;;;;;;5084250;28;20036;-57
2022/03/09 03:18:34;;;;;;;11.70;4.50;;;;;;;;;;5084285;28;20063;-54
2022/03/09 03:21:22;;;;;;;;;;;;;;;;;;;;;
2022/03/09 03:24:27;;;;;;;5.80;4.17;;;;;;;;;;5083814;28;20116;-56
2022/03/09 03:30:26;;;;;;;5.13;4.63;;;;;;;;;;5064000;28;20067;-57
2022/03/09 03:39:01;;;;;;;;;;;;;;;;;;;;;
2022/03/09 03:41:37;;;;;;;9.10;5.63;;;;;;;;;;5042283;28;20100;-57
2022/03/09 03:47:26;;;;;;;6.57;4.37;;;;;;;;;;5060461;28;20108;-57
2022/03/09 03:53:15;;;;;;;6.47;4.57;;;;;;;;;;5109619;28;19908;-56
2022/03/09 03:55:53;;;;;;;5.80;4.50;;;;;;;;;;5107727;28;20031;-57
2022/03/09 03:58:38;;;;;;;8.13;4.70;;;;;;;;;;5108136;28;20032;-57
2022/03/09 04:01:20;;;;;;;7.37;4.43;;;;;;;;;;5110120;28;20028;-57
2022/03/09 04:04:08;;;;;;;7.07;4.93;;;;;;;;;;5090370;28;20040;-56
2022/03/09 04:09:55;;;;;;;7.70;5.17;;;;;;;;;;5027232;28;20026;-57
2022/03/09 04:13:08;;;;;;;6.53;5.60;;;;;;;;;;5027670;28;20026;-57
2022/03/09 04:15:39;;;;;;;5.60;4.90;;;;;;;;;;5027850;28;20026;-56
2022/03/09 04:18:29;;;;;;;10.03;5.87;;;;;;;;;;5027138;28;20061;-58
2022/03/09 04:21:18;;;;;;;8.35;5.78;;;;;;;;;;5064400;28;20490;-58
2022/03/09 04:27:01;;;;;;;8.47;5.83;;;;;;;;;;5055211;28;20079;-57
2022/03/09 04:33:08;;;;;;;;;;;;;;;;;;;;;
2022/03/09 04:35:37;;;;;;;;;;;;;;;;;;5010997;28;20053;-57
2022/03/09 04:38:27;;;;;;;10.47;4.57;;;;;;;;;;5050186;28;19904;-55
2022/03/09 04:41:10;;;;;;;6.40;4.78;;;;;;;;;;5058265;28;20470;-57
2022/03/09 04:44:03;;;;;;;7.57;4.70;;;;;;;;;;5057441;28;20055;-55
2022/03/09 04:49:51;;;;;;;8.73;5.17;;;;;;;;;;5053176;28;20113;-58
2022/03/09 04:55:56;;;;;;;;;;;;;;;;;;;;;
2022/03/09 05:07:38;;;;;;;;;;;;;;;;;;4994705;28;20070;-55
2022/03/09 05:10:30;;;;;;;6.07;4.37;;;;;;;;;;5050673;28;20338;-58
2022/03/09 05:13:20;;;;;;;7.53;5.30;;;;;;;;;;5059897;28;20032;-55
2022/03/09 05:16:25;;;;;;;5.07;4.03;;;;;;;;;;5046479;28;20040;-56
2022/03/09 05:19:15;;;;;;;7.37;4.73;;;;;;;;;;5057352;28;20024;-58
2022/03/09 05:28:04;;;;;;;11.80;3.57;;;;;;;;;;5033458;28;20032;-56
2022/03/09 05:30:33;;;;;;;4.95;4.50;;;;;;;;;;5026962;28;20060;-58
2022/03/09 05:33:13;;;;;;;;;;;;;;;;;;;;;
2022/03/09 05:35:51;;;;;;;6.55;4.13;;;;;;;;;;5067852;28;20039;-56
2022/03/09 05:38:20;;;;;;;5.73;4.10;;;;;;;;;;5060084;28;20036;-56
2022/03/09 05:40:55;;;;;;;7.77;5.47;;;;;;;;;;5075601;28;20071;-55
2022/03/09 05:43:34;;;;;;;6.93;5.13;;;;;;;;;;5076101;28;20024;-56
2022/03/09 05:49:05;;;;;;;;;;;;;;;;;;;;;
2022/03/09 05:51:47;;;;;;;7.07;5.47;;;;;;;;;;5071599;28;20119;-55
2022/03/09 06:00:46;;;;;;;5.97;4.63;;;;;;;;;;5065614;28;20024;-54
2022/03/09 06:04:06;;;;;;;11.67;5.23;;;;;;;;;;5056908;28;20073;-54
2022/03/09 06:15:48;;;;;;;7.80;4.47;;;;;;;;;;5013186;28;20037;-57
2022/03/09 06:21:17;;;;;;;8.40;6.10;;;;;;;;;;5031667;28;20041;-56
2022/03/09 06:24:09;;;;;;;13.50;4.82;;;;;;;;;;5050708;28;20026;-57
2022/03/09 06:29:44;;;;;;;9.13;5.20;;;;;;;;;;5036146;28;20131;-57
2022/03/09 06:32:42;;;;;;;;;;;;;;;;;;;;;
2022/03/09 06:38:39;;;;;;;5.83;4.27;;;;;;;;;;5070683;28;20527;-56
2022/03/09 06:41:17;;;;;;;7.87;4.87;;;;;;;;;;5076683;28;20032;-55
2022/03/09 06:44:11;;;;;;;7.73;5.67;;;;;;;;;;5093380;28;20036;-56
2022/03/09 06:47:11;;;;;;;5.93;4.80;;;;;;;;;;5089468;28;20122;-54
2022/03/09 06:50:08;;;;;;;8.20;6.37;;;;;;;;;;5094468;28;20020;-57
2022/03/09 07:01:41;;;;;;;12.77;5.53;;;;;;;;;;5083144;28;20048;-56
2022/03/09 07:07:37;;;;;;;9.93;6.60;;;;;;;;;;5093908;28;20035;-57
2022/03/09 07:10:35;;;;;;;12.10;7.13;;;;;;;;;;5094613;28;20024;-57
2022/03/09 07:13:13;;;;;;;8.43;6.20;;;;;;;;;;5094414;28;20085;-56
2022/03/09 07:15:58;;;;;;;7.10;5.70;;;;;;;;;;5079598;28;20043;-56
2022/03/09 07:24:27;;;;;;;12.43;6.03;;;;;;;;;;5097901;28;20096;-57
2022/03/09 07:27:34;;;;;;;7.50;5.40;;;;;;;;;;5097189;28;20036;-57
2022/03/09 07:30:13;;;;;;;6.60;4.10;;;;;;;;;;5057953;28;20051;-56
2022/03/09 07:33:22;;;;;;;;;;;;;;;;;;;;;
2022/03/09 07:39:27;;;;;;;;;;;;;;;;;;;;;
2022/03/09 07:41:56;;;;;;;14.18;10.60;;;;;;;;;;5095011;28;20051;-57
2022/03/09 07:44:42;;;;;;;7.43;5.20;;;;;;;;;;5075889;28;20111;-56
2022/03/09 07:47:25;;;;;;;10.10;5.77;;;;;;;;;;5074566;28;20478;-56
2022/03/09 07:53:06;;;;;;;9.10;6.53;;;;;;;;;;5074905;28;20045;-57
2022/03/09 07:59:15;;;;;;;10.20;7.33;;;;;;;;;;5067775;28;20035;-56
2022/03/09 08:14:46;;;;;;;8.57;6.70;;;;;;;;;;5059727;28;20516;-55
2022/03/09 08:17:33;;;;;;;10.27;7.43;;;;;;;;;;5097281;28;20051;-56
2022/03/09 08:20:30;;;;;;;10.73;8.73;;;;;;;;;;5098346;28;20403;-55
2022/03/09 08:23:31;;;;;;;12.30;8.60;;;;;;;;;;5098162;28;20046;-57
2022/03/09 08:26:05;;;;;;;9.13;7.13;;;;;;;;;;5064553;28;20423;-57
2022/03/09 08:29:08;;;;;;;14.53;6.70;;;;;;;;;;5082667;28;20040;-55
2022/03/09 08:31:47;;;;;;;14.13;8.37;;;;;;;;;;5053741;28;20032;-57
2022/03/09 08:34:38;;;;;;;9.97;6.30;;;;;;;;;;5077757;28;20085;-57
2022/03/09 08:37:24;;;;;;;10.83;7.40;;;;;;;;;;5096943;28;20085;-57
2022/03/09 08:40:11;;;;;;;11.27;8.27;;;;;;;;;;5096274;28;20028;-57
2022/03/09 08:42:59;;;;;;;8.97;7.00;;;;;;;;;;5061108;28;20051;-56
2022/03/09 08:45:42;;;;;;;11.13;7.50;;;;;;;;;;5094507;28;20058;-55
2022/03/09 08:48:54;;;;;;;8.87;5.43;;;;;;;;;;5078630;28;20488;-57
2022/03/09 08:54:00;;;;;;;;;;;;;;;;;;;;;
2022/03/09 08:56:58;;;;;;;;;;;;;;;;;;;;;
2022/03/09 08:59:44;;;;;;;7.03;6.20;;;;;;;;;;5048183;28;20028;-55
2022/03/09 09:02:10;;;;;;;11.83;6.70;;;;;;;;;;5077770;28;20047;-55
2022/03/09 09:11:28;;;;;;;10.00;6.43;;;;;;;;;;5096331;28;20480;-56
2022/03/09 09:14:13;;;;;;;;;;;;;;;;;;;;;
2022/03/09 09:16:53;;;;;;;9.00;6.83;;;;;;;;;;5095919;28;20026;-57
2022/03/09 09:19:32;;;;;;;12.10;7.10;;;;;;;;;;5075405;28;20508;-55
2022/03/09 09:22:04;;;;;;;10.57;6.72;;;;;;;;;;5077010;28;20470;-56
2022/03/09 09:25:03;;;;;;;;;;;;;;;;;;;;;
2022/03/09 09:31:05;;;;;;;;;;;;;;;;;;;;;
2022/03/09 09:33:43;;;;;;;7.97;6.85;;;;;;;;;;5071175;28;20381;-56
2022/03/09 09:36:44;;;;;;;10.85;6.70;;;;;;;;;;5042179;28;20032;-56
2022/03/09 09:39:40;;;;;;;14.35;7.28;;;;;;;;;;5071632;28;20040;-56
2022/03/09 09:45:44;;;;;;;12.02;7.97;;;;;;;;;;5005538;28;20056;-53
2022/03/09 09:48:48;;;;;;;12.82;7.75;;;;;;;;;;4935484;29;20560;-55
2022/03/09 09:51:26;;;;;;;10.70;7.88;;;;;;;;;;4984463;28;20042;-56
2022/03/09 09:54:18;;;;;;;12.93;8.30;;;;;;;;;;4977862;28;20089;-56
2022/03/09 09:56:57;;;;;;;8.80;6.65;;;;;;;;;;4969612;28;20035;-56
2022/03/09 09:59:50;;;;;;;12.25;7.03;;;;;;;;;;5012826;28;20054;-54
2022/03/09 10:02:32;;;;;;;9.30;6.22;;;;;;;;;;4997066;28;20088;-57
2022/03/09 10:05:20;;;;;;;12.00;6.75;;;;;;;;;;5004950;28;20052;-56
2022/03/09 10:08:13;;;;;;;21.33;8.60;;;;;;;;;;5017251;28;20446;-57
2022/03/09 10:11:03;;;;;;;10.50;7.88;;;;;;;;;;5032746;28;20037;-55
2022/03/09 10:13:58;;;;;;;9.65;7.97;;;;;;;;;;5024390;28;20096;-56
2022/03/09 10:16:36;;;;;;;10.52;7.35;;;;;;;;;;5030930;28;20025;-56
2022/03/09 10:22:36;;;;;;;12.70;8.15;;;;;;;;;;5012772;28;20033;-57
2022/03/09 10:25:23;;;;;;;11.20;8.25;;;;;;;;;;5011034;28;20088;-56
2022/03/09 10:28:37;;;;;;;12.07;7.15;;;;;;;;;;5013631;28;20117;-57
2022/03/09 10:31:07;;;;;;;11.63;7.70;;;;;;;;;;5006444;28;20131;-57
2022/03/09 10:36:57;;;;;;;10.93;8.25;;;;;;;;;;5002267;28;20030;-57
2022/03/09 10:39:46;;;;;;;14.50;7.97;;;;;;;;;;5001411;28;20039;-57
2022/03/09 10:42:37;;;;;;;13.45;9.10;;;;;;;;;;5044469;28;20036;-57
2022/03/09 10:45:45;;;;;;;12.98;8.65;;;;;;;;;;5057059;28;20041;-57
2022/03/09 10:51:37;;;;;;;;;;;;;;;;;;;;;
2022/03/09 10:54:38;;;;;;;;;;;;;;;;;;;;;
2022/03/09 10:57:51;;;;;;;13.32;8.25;;;;;;;;;;5046091;28;20037;-55
2022/03/09 11:00:57;;;;;;;16.02;8.73;;;;;;;;;;5011635;28;20038;-56
2022/03/09 11:03:46;;;;;;;;;;;;;;;;;;;;;
2022/03/09 11:06:46;;;;;;;15.68;10.02;;;;;;;;;;5011716;28;20508;-57
2022/03/09 11:09:31;;;;;;;12.75;8.73;;;;;;;;;;4996137;28;20173;-53
2022/03/09 11:12:53;;;;;;;18.95;10.65;;;;;;;;;;5011810;28;20037;-55
2022/03/09 11:15:15;;;;;;;11.23;9.10;;;;;;;;;;5012304;28;20068;-56
2022/03/09 11:18:08;;;;;;;21.07;11.07;;;;;;;;;;5031991;28;20151;-57
2022/03/09 11:20:50;;;;;;;11.60;10.05;;;;;;;;;;5089712;28;20446;-57
2022/03/09 11:23:23;;;;;;;16.55;10.85;;;;;;;;;;5093946;28;20027;-57
2022/03/09 11:26:08;;;;;;;15.02;10.60;;;;;;;;;;5093829;28;20434;-55
2022/03/09 11:28:53;;;;;;;;;;;;;;;;;;;;;
2022/03/09 11:35:22;;;;;;;13.85;9.20;;;;;;;;;;5093596;28;20047;-57
2022/03/09 11:40:48;;;;;;;;;;;;;;;;;;5094185;28;20032;-57
2022/03/09 11:44:03;;;;;;;13.25;9.70;;;;;;;;;;5093842;28;20376;-57
2022/03/09 11:46:50;;;;;;;13.88;10.27;;;;;;;;;;5049463;28;20032;-58
2022/03/09 11:52:46;;;;;;;14.27;10.02;;;;;;;;;;5091578;28;20090;-57
2022/03/09 12:05:12;;;;;;;15.38;11.15;;;;;;;;;;5069054;28;20443;-56
2022/03/09 12:08:00;;;;;;;15.52;11.25;;;;;;;;;;5096742;28;20032;-57
2022/03/09 12:10:53;;;;;;;17.38;10.63;;;;;;;;;;5096593;28;20027;-57
2022/03/09 12:13:40;;;;;;;17.63;10.63;;;;;;;;;;5097115;28;20028;-57
2022/03/09 12:22:17;;;;;;;;;;;;;;;;;;5015464;28;20479;-55
2022/03/09 12:25:14;;;;;;;18.00;10.82;;;;;;;;;;4994989;28;19906;-57
2022/03/09 12:28:06;;;;;;;13.05;9.02;;;;;;;;;;5027075;28;20033;-57
2022/03/09 12:36:55;;;;;;;16.67;10.27;;;;;;;;;;5017538;28;20029;-57
2022/03/09 12:39:33;;;;;;;14.55;10.00;;;;;;;;;;5054216;28;20037;-56
2022/03/09 12:45:09;;;;;;;13.27;9.13;;;;;;;;;;5054783;28;20056;-55
2022/03/09 12:47:54;;;;;;;19.60;11.43;;;;;;;;;;5054593;28;20029;-57
2022/03/09 12:50:55;;;;;;;14.63;10.07;;;;;;;;;;5020861;28;20502;-56
2022/03/09 12:53:34;;;;;;;17.80;11.25;;;;;;;;;;5043831;28;20033;-57
2022/03/09 12:57:02;;;;;;;15.27;11.10;;;;;;;;;;5080199;28;20032;-57
2022/03/09 13:00:03;;;;;;;15.18;11.98;;;;;;;;;;5033957;28;20025;-57
2022/03/09 13:02:52;;;;;;;13.65;10.60;;;;;;;;;;5075681;28;20255;-57
2022/03/09 13:05:35;;;;;;;17.05;11.07;;;;;;;;;;5090530;28;20379;-56
2022/03/09 13:17:36;;;;;;;18.17;11.40;;;;;;;;;;5052733;28;20044;-57
2022/03/09 13:20:31;;;;;;;16.65;11.45;;;;;;;;;;5052826;28;20021;-56
2022/03/09 13:23:15;;;;;;;16.65;9.25;;;;;;;;;;5051930;28;20510;-57
2022/03/09 13:28:38;;;;;;;14.60;9.00;;;;;;;;;;5052889;28;20029;-57
2022/03/09 13:31:23;;;;;;;11.88;8.77;;;;;;;;;;5052854;28;20467;-55
2022/03/09 13:34:13;;;;;;;14.48;10.65;;;;;;;;;;5034868;28;20033;-57
2022/03/09 13:36:52;;;;;;;17.80;10.93;;;;;;;;;;5053850;28;20029;-56
2022/03/09 13:39:29;;;;;;;14.13;8.95;;;;;;;;;;5068277;28;20441;-57
2022/03/09 13:45:42;;;;;;;;;;;;;;;;;;;;;
2022/03/09 13:48:19;;;;;;;11.50;9.68;;;;;;;;;;5069729;28;20047;-57
2022/03/09 13:54:02;;;;;;;15.13;9.93;;;;;;;;;;5041885;28;20162;-57
2022/03/09 13:56:39;;;;;;;12.98;9.88;;;;;;;;;;5055849;28;20405;-57
2022/03/09 13:59:38;;;;;;;13.48;9.38;;;;;;;;;;5053278;28;20048;-58
2022/03/09 14:08:48;;;;;;;13.18;9.48;;;;;;;;;;5088456;28;20138;-56
2022/03/09 14:15:10;;;;;;;11.57;7.60;;;;;;;;;;5031178;28;20514;-57
2022/03/09 14:18:00;;;;;;;14.90;8.07;;;;;;;;;;5046022;28;20483;-58
2022/03/09 14:20:52;;;;;;;15.23;9.60;;;;;;;;;;5094346;28;20087;-56
2022/03/09 14:23:28;;;;;;;10.60;8.18;;;;;;;;;;5094823;28;20043;-57
2022/03/09 14:26:26;;;;;;;13.77;9.48;;;;;;;;;;5095287;28;20038;-57
2022/03/09 14:38:01;;;;;;;14.55;9.18;;;;;;;;;;5094931;28;20077;-58
2022/03/09 14:40:44;;;;;;;15.03;8.37;;;;;;;;;;5093899;28;20027;-57
2022/03/09 14:49:34;;;;;;;12.90;7.45;;;;;;;;;;5092709;28;20512;-58
2022/03/09 14:52:34;;;;;;;10.13;7.10;;;;;;;;;;5076929;28;20051;-57
2022/03/09 14:55:20;;;;;;;11.48;7.15;;;;;;;;;;5091786;28;20473;-57
2022/03/09 15:01:18;;;;;;;9.40;7.78;;;;;;;;;;5076226;28;20044;-57
2022/03/09 15:04:32;;;;;;;;;;;;;;;;;;;;;
2022/03/09 15:07:07;;;;;;;9.75;7.05;;;;;;;;;;5027991;28;20052;-58
2022/03/09 15:09:37;;;;;;;14.15;8.13;;;;;;;;;;5051232;28;20036;-58
2022/03/09 15:12:51;;;;;;;8.18;5.57;;;;;;;;;;5076564;28;20524;-58
2022/03/09 15:15:27;;;;;;;9.55;6.35;;;;;;;;;;5076754;28;20040;-57
2022/03/09 15:18:15;;;;;;;9.32;6.47;;;;;;;;;;5075106;28;20090;-56
2022/03/09 15:23:48;;;;;;;9.45;7.07;;;;;;;;;;5094137;28;20458;-57
2022/03/09 15:26:46;;;;;;;10.77;6.57;;;;;;;;;;5075955;28;20065;-58
2022/03/09 15:29:28;;;;;;;9.27;5.72;;;;;;;;;;5096091;28;20036;-57
2022/03/09 15:32:28;;;;;;;9.98;5.88;;;;;;;;;;5076526;28;20113;-56
2022/03/09 15:35:08;;;;;;;9.23;7.07;;;;;;;;;;5092646;28;20134;-58
2022/03/09 15:37:43;;;;;;;10.45;7.85;;;;;;;;;;5079305;28;20081;-56
2022/03/09 15:43:43;;;;;;;11.98;7.57;;;;;;;;;;5093189;28;20032;-56
2022/03/09 15:49:34;;;;;;;11.50;8.40;;;;;;;;;;5097750;28;20028;-57
2022/03/09 15:52:25;;;;;;;10.10;7.95;;;;;;;;;;5097056;28;20030;-58
2022/03/09 16:00:55;;;;;;;9.10;7.40;;;;;;;;;;5078692;28;20020;-57
2022/03/09 16:03:58;;;;;;;7.03;5.78;;;;;;;;;;5097525;28;20114;-57
2022/03/09 16:06:31;;;;;;;9.50;7.43;;;;;;;;;;5056017;28;20039;-58
2022/03/09 16:15:07;;;;;;;9.40;5.70;;;;;;;;;;5054494;28;20033;-56
2022/03/09 16:17:52;;;;;;;;;;;;;;;;;;;;;
2022/03/09 16:20:43;;;;;;;;;;;;;;;;;;;;;
2022/03/09 16:23:32;;;;;;;15.43;9.90;;;;;;;;;;5055233;28;20475;-57
2022/03/09 16:29:27;;;;;;;17.15;10.23;;;;;;;;;;5031404;28;20032;-57
2022/03/09 16:34:50;;;;;;;14.70;11.45;;;;;;;;;;5040452;28;20036;-56
2022/03/09 16:37:49;;;;;;;14.20;10.60;;;;;;;;;;5054367;28;20021;-57
2022/03/09 16:40:41;;;;;;;14.57;9.82;;;;;;;;;;5063295;28;20028;-57
2022/03/09 16:43:22;;;;;;;14.05;9.73;;;;;;;;;;5085722;28;20039;-58
2022/03/09 16:46:06;;;;;;;12.63;9.73;;;;;;;;;;5077376;28;20426;-57
2022/03/09 16:49:02;;;;;;;17.27;10.43;;;;;;;;;;5064147;28;20027;-57
2022/03/09 16:58:43;;;;;;;;;;;;;;;;;;;;;
2022/03/09 17:01:12;;;;;;;18.23;10.98;;;;;;;;;;5014273;28;20439;-56
2022/03/09 17:03:47;;;;;;;14.23;11.27;;;;;;;;;;5076379;28;20535;-58
2022/03/09 17:07:05;;;;;;;;;;;;;;;;;;;;;
2022/03/09 17:09:53;;;;;;;15.88;10.00;;;;;;;;;;5093407;28;20044;-57
2022/03/09 17:12:40;;;;;;;17.35;11.68;;;;;;;;;;5097208;28;20035;-56
2022/03/09 17:18:22;;;;;;;18.58;10.70;;;;;;;;;;5096014;28;20107;-56
2022/03/09 17:21:07;;;;;;;14.20;11.55;;;;;;;;;;5077342;28;20089;-57
2022/03/09 17:23:39;;;;;;;23.45;10.48;;;;;;;;;;5096598;28;20024;-57
2022/03/09 17:26:31;;;;;;;;;;;;;;;;;;;;;
2022/03/09 17:29:20;;;;;;;13.43;11.30;;;;;;;;;;5062122;28;20040;-58
2022/03/09 17:32:01;;;;;;;16.95;10.02;;;;;;;;;;5096542;28;20024;-57
2022/03/09 17:43:56;;;;;;;20.30;12.15;;;;;;;;;;5095900;28;20377;-57
2022/03/09 17:46:48;;;;;;;16.13;11.63;;;;;;;;;;5095658;28;20036;-57
2022/03/09 17:49:38;;;;;;;17.60;12.52;;;;;;;;;;5097778;28;20032;-57
2022/03/09 17:52:22;;;;;;;16.65;11.60;;;;;;;;;;5094178;28;20393;-55
2022/03/09 17:55:03;;;;;;;17.75;13.48;;;;;;;;;;5095485;28;20028;-56
2022/03/09 17:57:42;;;;;;;;;;;;;;;;;;5095454;28;20500;-57
2022/03/09 18:03:35;;;;;;;14.75;10.30;;;;;;;;;;5094753;28;20043;-57
2022/03/09 18:06:27;;;;;;;15.48;11.88;;;;;;;;;;5092755;28;20113;-58
2022/03/09 18:09:40;;;;;;;21.55;12.38;;;;;;;;;;5080565;28;20043;-57
2022/03/09 18:13:07;;;;;;;;;;;;;;;;;;;;;
2022/03/09 18:15:42;;;;;;;21.52;12.20;;;;;;;;;;5052145;28;20417;-57
2022/03/09 18:18:26;;;;;;;;;;;;;;;;;;;;;
2022/03/09 18:21:14;;;;;;;17.83;10.93;;;;;;;;;;5058986;28;20029;-56
2022/03/09 18:23:53;;;;;;;15.68;10.38;;;;;;;;;;5054965;28;20028;-57
2022/03/09 18:26:41;;;;;;;13.68;9.93;;;;;;;;;;5071924;28;20025;-57
2022/03/09 18:29:22;;;;;;;15.60;10.70;;;;;;;;;;5072371;28;20124;-57
2022/03/09 18:35:07;;;;;;;16.95;11.35;;;;;;;;;;5071666;28;20036;-57
2022/03/09 18:37:49;;;;;;;17.98;10.02;;;;;;;;;;5072135;28;20028;-56
2022/03/09 18:40:26;;;;;;;14.70;10.65;;;;;;;;;;5071864;28;20016;-56
2022/03/09 18:43:17;;;;;;;15.40;11.80;;;;;;;;;;5071126;28;20127;-57
2022/03/09 18:45:57;;;;;;;15.90;9.85;;;;;;;;;;5071606;28;20025;-57
2022/03/09 18:48:57;;;;;;;;;;;;;;;;;;;;;
2022/03/09 18:51:37;;;;;;;14.82;11.10;;;;;;;;;;5092288;28;20321;-57
2022/03/09 18:57:22;;;;;;;19.08;11.82;;;;;;;;;;5031696;28;20273;-57
2022/03/09 19:00:05;;;;;;;16.42;9.85;;;;;;;;;;5031460;28;20101;-56
2022/03/09 19:02:52;;;;;;;17.95;10.93;;;;;;;;;;5018496;28;20359;-57
2022/03/09 19:05:25;;;;;;;19.40;13.95;;;;;;;;;;5031130;28;20084;-57
2022/03/09 19:08:26;;;;;;;17.00;11.07;;;;;;;;;;5031276;28;20060;-56
2022/03/09 19:14:35;;;;;;;19.30;12.05;;;;;;;;;;5052378;28;20033;-57
2022/03/09 19:17:31;;;;;;;17.45;11.93;;;;;;;;;;5074940;28;20032;-58
2022/03/09 19:23:03;;;;;;;24.05;13.20;;;;;;;;;;5098440;28;20043;-56
2022/03/09 19:25:39;;;;;;;18.27;11.73;;;;;;;;;;5099166;28;20017;-57
2022/03/09 19:28:31;;;;;;;16.42;11.93;;;;;;;;;;5074505;28;20535;-57
2022/03/09 19:31:27;;;;;;;18.63;13.00;;;;;;;;;;5080265;28;20381;-55
2022/03/09 19:34:14;;;;;;;18.23;12.70;;;;;;;;;;5079618;28;20496;-57
2022/03/09 19:46:16;;;;;;;26.30;11.77;;;;;;;;;;5084269;28;20028;-54
2022/03/09 19:49:29;;;;;;;16.17;10.55;;;;;;;;;;5098957;28;20020;-58
2022/03/09 19:55:18;;;;;;;19.33;10.93;;;;;;;;;;5015900;28;20064;-57
2022/03/09 20:01:24;;;;;;;13.20;11.35;;;;;;;;;;5097953;28;20058;-56
2022/03/09 20:07:17;;;;;;;22.83;13.57;;;;;;;;;;5004181;28;20048;-57
2022/03/09 20:10:24;;;;;;;20.73;14.48;;;;;;;;;;5037491;28;20506;-58
2022/03/09 20:12:53;;;;;;;17.67;13.27;;;;;;;;;;4994162;28;20526;-57
2022/03/09 20:15:58;;;;;;;22.88;15.65;;;;;;;;;;4994639;28;20045;-55
2022/03/09 20:18:34;;;;;;;25.13;15.23;;;;;;;;;;4976034;28;20035;-57
2022/03/09 20:24:12;;;;;;;25.48;14.75;;;;;;;;;;5054495;28;20029;-57
2022/03/09 20:30:18;;;;;;;;;;;;;;;;;;;;;
2022/03/09 20:32:59;;;;;;;24.77;17.45;;;;;;;;;;5050632;28;20045;-57
2022/03/09 20:35:36;;;;;;;28.42;17.65;;;;;;;;;;5053493;28;20033;-57
2022/03/09 20:38:05;;;;;;;28.50;18.05;;;;;;;;;;5054410;28;20191;-57
2022/03/09 20:40:51;;;;;;;22.95;17.25;;;;;;;;;;5053936;28;20024;-57
2022/03/09 20:43:22;;;;;;;28.00;19.27;;;;;;;;;;5079219;28;20591;-56
2022/03/09 20:45:57;;;;;;;24.63;16.67;;;;;;;;;;5076951;28;20028;-57
2022/03/09 20:54:15;;;;;;;24.35;15.60;;;;;;;;;;5061429;28;20421;-58
2022/03/09 20:57:04;;;;;;;31.65;19.58;;;;;;;;;;5094002;28;20509;-57
2022/03/09 21:02:47;;;;;;;25.95;17.60;;;;;;;;;;5086625;28;20036;-57
2022/03/09 21:05:34;;;;;;;31.52;18.48;;;;;;;;;;5085674;28;20031;-57
2022/03/09 21:11:18;;;;;;;22.05;16.50;;;;;;;;;;5081356;28;20032;-57
2022/03/09 21:17:07;;;;;;;27.95;18.70;;;;;;;;;;5093422;28;20051;-57
2022/03/09 21:20:12;;;;;;;28.92;19.95;;;;;;;;;;5095712;28;20024;-55
2022/03/09 21:22:41;;;;;;;34.10;19.98;;;;;;;;;;5078893;28;20055;-55
2022/03/09 21:28:07;;;;;;;34.20;20.38;;;;;;;;;;5095878;28;20065;-56
2022/03/09 21:30:45;;;;;;;35.40;20.42;;;;;;;;;;5095880;28;20056;-55
2022/03/09 21:33:33;;;;;;;35.65;20.25;;;;;;;;;;5076895;28;20503;-57
2022/03/09 21:36:09;;;;;;;31.88;19.55;;;;;;;;;;5092940;28;20469;-56
2022/03/09 21:39:25;;;;;;;;;;;;;;;;;;;;;
2022/03/09 21:42:13;;;;;;;31.55;19.42;;;;;;;;;;5074838;28;20436;-54
2022/03/09 21:53:46;;;;;;;43.58;22.75;;;;;;;;;;5081052;28;20050;-58
2022/03/09 21:56:19;;;;;;;31.10;20.25;;;;;;;;;;5095843;28;20031;-56
2022/03/09 21:59:25;;;;;;;28.40;19.40;;;;;;;;;;5095922;28;20021;-57
2022/03/09 22:02:26;;;;;;;28.65;17.92;;;;;;;;;;5103786;28;20057;-55
2022/03/09 22:04:55;;;;;;;;;;;;;;;;;;5102087;28;20478;-55
2022/03/09 22:07:38;;;;;;;31.88;18.60;;;;;;;;;;5108265;28;19947;-57
2022/03/09 22:13:14;;;;;;;47.20;24.30;;;;;;;;;;5086519;28;20063;-57
2022/03/09 22:18:59;;;;;;;51.90;26.73;;;;;;;;;;5093546;28;20028;-57
2022/03/09 22:21:47;;;;;;;28.60;18.30;;;;;;;;;;5107249;28;20036;-55
2022/03/09 22:24:34;;;;;;;47.23;28.07;;;;;;;;;;5105502;28;20127;-57
2022/03/09 22:36:52;;;;;;;39.58;21.75;;;;;;;;;;5031906;28;20041;-57
2022/03/09 22:39:49;;;;;;;50.38;22.60;;;;;;;;;;5085328;28;20108;-57
2022/03/09 22:45:15;;;;;;;31.10;17.50;;;;;;;;;;5085016;28;20032;-57
2022/03/09 22:51:36;;;;;;;52.60;24.50;;;;;;;;;;5071738;28;20028;-55
2022/03/09 22:54:35;;;;;;;40.80;23.63;;;;;;;;;;5068256;28;20489;-57
2022/03/09 22:57:24;;;;;;;;;;;;;;;;;;;;;
2022/03/09 23:03:15;;;;;;;38.50;19.42;;;;;;;;;;4985902;28;20038;-57
2022/03/09 23:05:51;;;;;;;27.80;16.45;;;;;;;;;;4985992;28;20027;-57
2022/03/09 23:08:26;;;;;;;21.25;15.52;;;;;;;;;;5053089;28;20044;-56
2022/03/09 23:14:23;;;;;;;;;;;;;;;;;;;;;
2022/03/09 23:17:08;;;;;;;22.23;15.18;;;;;;;;;;5086985;28;20060;-56
2022/03/09 23:20:08;;;;;;;25.08;16.45;;;;;;;;;;5086859;28;20052;-57
2022/03/09 23:22:57;;;;;;;28.33;18.70;;;;;;;;;;5087049;28;20112;-57
2022/03/09 23:25:42;;;;;;;25.95;17.38;;;;;;;;;;5086636;28;20104;-57
2022/03/09 23:28:23;;;;;;;31.15;18.00;;;;;;;;;;5087110;28;20021;-55
2022/03/09 23:31:09;;;;;;;22.85;15.73;;;;;;;;;;5086802;28;20055;-57
2022/03/09 23:39:45;;;;;;;31.17;19.83;;;;;;;;;;5044660;28;20132;-57
2022/03/09 23:42:42;;;;;;;32.17;19.23;;;;;;;;;;5052739;28;20045;-57
2022/03/09 23:45:17;;;;;;;24.85;17.38;;;;;;;;;;5086703;28;20043;-54
2022/03/09 23:47:57;;;;;;;26.10;16.27;;;;;;;;;;5043959;28;20037;-57
2022/03/09 23:53:42;;;;;;;24.83;16.50;;;;;;;;;;5044613;28;20029;-56
